Diamantis P — A8WA2 — position and weather

sailwx.info

Track history (hours):
 
Tides and Currents Weather Stations Pressure Air Temp Water Temp Dewpoint Dewpoint Depression Visibility Wind Speed Wind Dir Waves Ship Positions

Diamantis P

Last reported at 2018-Apr-25 05:23 UTC. Time now 2018-Apr-27 06:55 UTC.
Position N 32°11' E 034°34'.

Length 188 m; draft 10.6 m.

Type: Cargo ship. MMSI: 636014699.

Date/timePositionNaut miles runAvg speedWind from/ knotsBaromVisibWave heightAir tempDewpointWater temp
2018-Apr-25 05:23N 32°11' E 034°34'410.6
2018-Apr-25 05:00N 32°15' E 034°36'610.7
2018-Apr-25 04:29N 32°20' E 034°37'510.8
2018-Apr-25 04:00N 32°25' E 034°39'710.8
2018-Apr-25 03:20N 32°32' E 034°42'310.5
2018-Apr-25 03:00N 32°36' E 034°43'510.3
2018-Apr-25 02:30N 32°40' E 034°44'510.1
2018-Apr-25 02:00N 32°45' E 034°46'5 9.9
2018-Apr-25 01:29N 32°50' E 034°48'4 7.9
2018-Apr-25 00:59N 32°53' E 034°51'4 9.0
2018-Apr-25 00:30N 32°53' E 034°56'3 0.3
2018-Apr-24 12:06N 32°51' E 034°60'1 4.7
2018-Apr-24 11:57N 32°52' E 034°60'1 0.7
2018-Apr-24 10:08N 32°54' E 034°59'0 0.0
2018-Apr-24 05:15N 32°54' E 034°59'0 0.0
2018-Apr-24 04:49N 32°54' E 034°59'0 0.0
2018-Apr-24 02:25N 32°54' E 034°59'0 0.1
2018-Apr-24 02:00N 32°54' E 034°59'0 0.0
2018-Apr-24 00:27N 32°54' E 034°59'0 0.0
2018-Apr-24 00:00N 32°54' E 034°59'0 0.0
2018-Apr-23 23:06N 32°54' E 034°59'0 0.0
2018-Apr-23 22:36N 32°54' E 034°59'0 0.0
2018-Apr-23 22:21N 32°54' E 034°59'0 0.0
2018-Apr-23 08:59N 32°54' E 034°60'0 0.0
2018-Apr-22 20:31N 32°54' E 034°59'0 0.0
2018-Apr-22 20:03N 32°54' E 034°60'0 0.0
2018-Apr-22 15:58N 32°54' E 034°59'0 0.0
2018-Apr-22 11:57N 32°54' E 034°60'0 0.0
2018-Apr-22 06:58N 32°54' E 034°60'0 0.0
2018-Apr-22 05:03N 32°54' E 034°59'0 0.0
2018-Apr-21 22:48N 32°54' E 034°60'0 1.1
2018-Apr-21 22:22N 32°54' E 034°59'4 8.6
2018-Apr-21 21:52N 32°54' E 034°54'514.0
2018-Apr-21 21:29N 32°55' E 034°47'229 5.4
2018-Apr-20 03:05N 35°48' E 031°46'114.6
2018-Apr-20 02:59N 35°48' E 031°45'  
2018-Apr-17 05:46N 37°40' E 023°42'414.1
2018-Apr-17 05:30N 37°43' E 023°40'714.1
2018-Apr-17 05:00N 37°50' E 023°36'613.0
2018-Apr-17 04:31N 37°56' E 023°36'1 2.8
2018-Apr-17 03:59N 37°57' E 023°35'0 0.0
2018-Apr-17 03:26N 37°57' E 023°35'0 0.0
2018-Apr-17 02:59N 37°57' E 023°35'0 0.0
2018-Apr-17 02:29N 37°57' E 023°35'0 0.0
2018-Apr-17 01:59N 37°57' E 023°35'0 0.0
2018-Apr-17 01:29N 37°57' E 023°35'0 0.0
2018-Apr-17 00:59N 37°57' E 023°35'0 0.0
2018-Apr-17 00:29N 37°57' E 023°35'0 0.0
2018-Apr-16 23:59N 37°57' E 023°35'0 0.0
2018-Apr-16 23:29N 37°57' E 023°35'0 0.0
2018-Apr-16 22:59N 37°57' E 023°35'0 0.0
2018-Apr-16 22:29N 37°57' E 023°35'0 0.0
2018-Apr-16 21:59N 37°57' E 023°35'0 0.0
2018-Apr-16 21:29N 37°57' E 023°35'0 0.0
2018-Apr-16 20:59N 37°57' E 023°35'0 0.0
2018-Apr-16 20:29N 37°57' E 023°35'0 0.0
2018-Apr-16 19:56N 37°57' E 023°35'0 0.1
2018-Apr-16 19:29N 37°57' E 023°35'0 0.0
2018-Apr-16 18:59N 37°57' E 023°35'0 0.0
2018-Apr-16 18:29N 37°57' E 023°35'0 0.0
2018-Apr-16 17:59N 37°57' E 023°35'0 0.0
2018-Apr-16 17:29N 37°57' E 023°35'0 0.0
2018-Apr-16 16:59N 37°57' E 023°35'0 0.0
2018-Apr-16 16:29N 37°57' E 023°35'0 0.0
2018-Apr-16 15:59N 37°57' E 023°35'0 0.0
2018-Apr-16 15:29N 37°57' E 023°35'0 0.0
2018-Apr-16 14:59N 37°57' E 023°35'0 0.0
2018-Apr-16 14:29N 37°57' E 023°35'0 0.0
2018-Apr-16 13:59N 37°57' E 023°35'0 0.0
2018-Apr-16 13:29N 37°57' E 023°35'0 0.0
2018-Apr-16 12:59N 37°57' E 023°35'0 0.0
2018-Apr-16 12:29N 37°57' E 023°35'0 0.0
2018-Apr-16 11:59N 37°57' E 023°35'0 0.0
2018-Apr-16 11:29N 37°57' E 023°35'0 0.0
2018-Apr-16 10:59N 37°57' E 023°35'0 0.0
2018-Apr-16 10:29N 37°57' E 023°35'0 0.0
2018-Apr-16 09:59N 37°57' E 023°35'0 0.0
2018-Apr-16 09:29N 37°57' E 023°35'0 0.0
2018-Apr-16 08:59N 37°57' E 023°35'0 0.0
2018-Apr-16 08:29N 37°57' E 023°35'0 0.0
2018-Apr-16 07:59N 37°57' E 023°35'0 0.0
2018-Apr-16 07:29N 37°57' E 023°35'0 0.0
2018-Apr-16 06:56N 37°57' E 023°35'0 0.0
2018-Apr-16 06:29N 37°57' E 023°35'0 0.0
2018-Apr-16 05:59N 37°57' E 023°35'0 0.0
2018-Apr-16 05:29N 37°57' E 023°35'0 0.0
2018-Apr-16 04:59N 37°57' E 023°35'0 0.0
2018-Apr-16 04:29N 37°57' E 023°35'0 0.0
2018-Apr-16 03:59N 37°57' E 023°35'0 0.0
2018-Apr-16 03:23N 37°57' E 023°35'0 0.0
2018-Apr-16 02:59N 37°57' E 023°35'0 0.0
2018-Apr-16 02:26N 37°57' E 023°35'0 0.0
2018-Apr-16 01:59N 37°57' E 023°35'0 0.0
2018-Apr-16 01:29N 37°57' E 023°35'0 0.0
2018-Apr-16 00:59N 37°57' E 023°35'0 0.0
2018-Apr-16 00:29N 37°57' E 023°35'0 0.0
2018-Apr-15 23:59N 37°57' E 023°35'0 0.0
2018-Apr-15 23:29N 37°57' E 023°35'0 0.0
2018-Apr-15 22:59N 37°57' E 023°35'0 0.0
2018-Apr-15 22:29N 37°57' E 023°35'0 0.1
2018-Apr-15 22:00N 37°57' E 023°35'2 4.1
2018-Apr-15 21:30N 37°55' E 023°35'1 1.1
2018-Apr-15 21:01N 37°55' E 023°35'0 0.1
2018-Apr-15 20:31N 37°55' E 023°35'0 0.1
2018-Apr-15 20:01N 37°55' E 023°35'1 1.8
2018-Apr-15 19:30N 37°54' E 023°35'2 4.3
2018-Apr-15 19:00N 37°52' E 023°33'0 0.2
2018-Apr-15 18:29N 37°52' E 023°33'0 0.0
2018-Apr-15 17:59N 37°52' E 023°33'0 0.2
2018-Apr-15 17:29N 37°52' E 023°33'0 0.1
2018-Apr-15 16:59N 37°52' E 023°33'0 0.1
2018-Apr-15 16:29N 37°52' E 023°33'0 0.1
2018-Apr-15 15:59N 37°52' E 023°33'0 0.1
2018-Apr-15 15:29N 37°52' E 023°33'0 0.1
2018-Apr-15 15:00N 37°52' E 023°33'1 1.7
2018-Apr-15 14:30N 37°52' E 023°34'3 6.4
2018-Apr-15 14:01N 37°51' E 023°38'611.7
2018-Apr-15 13:30N 37°46' E 023°42'713.5
2018-Apr-15 12:57N 37°39' E 023°46'  
Track history (hours):
 
Tides and Currents Weather Stations Pressure Air Temp Water Temp Dewpoint Dewpoint Depression Visibility Wind Speed Wind Dir Waves Ship Positions

Diamantis P

Last reported at 2018-Apr-25 05:23 UTC. Time now 2018-Apr-27 06:55 UTC.
Position N 32°11' E 034°34'.

Length 188 m; draft 10.6 m.

Type: Cargo ship. MMSI: 636014699.

Date/timePositionNaut miles runAvg speedWind from/ knotsBaromVisibWave heightAir tempDewpointWater temp
2018-Apr-25 05:23N 32°11' E 034°34'410.6
2018-Apr-25 05:00N 32°15' E 034°36'610.7
2018-Apr-25 04:29N 32°20' E 034°37'510.8
2018-Apr-25 04:00N 32°25' E 034°39'710.8
2018-Apr-25 03:20N 32°32' E 034°42'310.5
2018-Apr-25 03:00N 32°36' E 034°43'510.3
2018-Apr-25 02:30N 32°40' E 034°44'510.1
2018-Apr-25 02:00N 32°45' E 034°46'5 9.9
2018-Apr-25 01:29N 32°50' E 034°48'4 7.9
2018-Apr-25 00:59N 32°53' E 034°51'4 9.0
2018-Apr-25 00:30N 32°53' E 034°56'3 0.3
2018-Apr-24 12:06N 32°51' E 034°60'1 4.7
2018-Apr-24 11:57N 32°52' E 034°60'1 0.7
2018-Apr-24 10:08N 32°54' E 034°59'0 0.0
2018-Apr-24 05:15N 32°54' E 034°59'0 0.0
2018-Apr-24 04:49N 32°54' E 034°59'0 0.0
2018-Apr-24 02:25N 32°54' E 034°59'0 0.1
2018-Apr-24 02:00N 32°54' E 034°59'0 0.0
2018-Apr-24 00:27N 32°54' E 034°59'0 0.0
2018-Apr-24 00:00N 32°54' E 034°59'0 0.0
2018-Apr-23 23:06N 32°54' E 034°59'0 0.0
2018-Apr-23 22:36N 32°54' E 034°59'0 0.0
2018-Apr-23 22:21N 32°54' E 034°59'0 0.0
2018-Apr-23 08:59N 32°54' E 034°60'0 0.0
2018-Apr-22 20:31N 32°54' E 034°59'0 0.0
2018-Apr-22 20:03N 32°54' E 034°60'0 0.0
2018-Apr-22 15:58N 32°54' E 034°59'0 0.0
2018-Apr-22 11:57N 32°54' E 034°60'0 0.0
2018-Apr-22 06:58N 32°54' E 034°60'0 0.0
2018-Apr-22 05:03N 32°54' E 034°59'0 0.0
2018-Apr-21 22:48N 32°54' E 034°60'0 1.1
2018-Apr-21 22:22N 32°54' E 034°59'4 8.6
2018-Apr-21 21:52N 32°54' E 034°54'514.0
2018-Apr-21 21:29N 32°55' E 034°47'229 5.4
2018-Apr-20 03:05N 35°48' E 031°46'114.6
2018-Apr-20 02:59N 35°48' E 031°45'  
2018-Apr-17 05:46N 37°40' E 023°42'414.1
2018-Apr-17 05:30N 37°43' E 023°40'714.1
2018-Apr-17 05:00N 37°50' E 023°36'613.0
2018-Apr-17 04:31N 37°56' E 023°36'1 2.8
2018-Apr-17 03:59N 37°57' E 023°35'0 0.0
2018-Apr-17 03:26N 37°57' E 023°35'0 0.0
2018-Apr-17 02:59N 37°57' E 023°35'0 0.0
2018-Apr-17 02:29N 37°57' E 023°35'0 0.0
2018-Apr-17 01:59N 37°57' E 023°35'0 0.0
2018-Apr-17 01:29N 37°57' E 023°35'0 0.0
2018-Apr-17 00:59N 37°57' E 023°35'0 0.0
2018-Apr-17 00:29N 37°57' E 023°35'0 0.0
2018-Apr-16 23:59N 37°57' E 023°35'0 0.0
2018-Apr-16 23:29N 37°57' E 023°35'0 0.0
2018-Apr-16 22:59N 37°57' E 023°35'0 0.0
2018-Apr-16 22:29N 37°57' E 023°35'0 0.0
2018-Apr-16 21:59N 37°57' E 023°35'0 0.0
2018-Apr-16 21:29N 37°57' E 023°35'0 0.0
2018-Apr-16 20:59N 37°57' E 023°35'0 0.0
2018-Apr-16 20:29N 37°57' E 023°35'0 0.0
2018-Apr-16 19:56N 37°57' E 023°35'0 0.1
2018-Apr-16 19:29N 37°57' E 023°35'0 0.0
2018-Apr-16 18:59N 37°57' E 023°35'0 0.0
2018-Apr-16 18:29N 37°57' E 023°35'0 0.0
2018-Apr-16 17:59N 37°57' E 023°35'0 0.0
2018-Apr-16 17:29N 37°57' E 023°35'0 0.0
2018-Apr-16 16:59N 37°57' E 023°35'0 0.0
2018-Apr-16 16:29N 37°57' E 023°35'0 0.0
2018-Apr-16 15:59N 37°57' E 023°35'0 0.0
2018-Apr-16 15:29N 37°57' E 023°35'0 0.0
2018-Apr-16 14:59N 37°57' E 023°35'0 0.0
2018-Apr-16 14:29N 37°57' E 023°35'0 0.0
2018-Apr-16 13:59N 37°57' E 023°35'0 0.0
2018-Apr-16 13:29N 37°57' E 023°35'0 0.0
2018-Apr-16 12:59N 37°57' E 023°35'0 0.0
2018-Apr-16 12:29N 37°57' E 023°35'0 0.0
2018-Apr-16 11:59N 37°57' E 023°35'0 0.0
2018-Apr-16 11:29N 37°57' E 023°35'0 0.0
2018-Apr-16 10:59N 37°57' E 023°35'0 0.0
2018-Apr-16 10:29N 37°57' E 023°35'0 0.0
2018-Apr-16 09:59N 37°57' E 023°35'0 0.0
2018-Apr-16 09:29N 37°57' E 023°35'0 0.0
2018-Apr-16 08:59N 37°57' E 023°35'0 0.0
2018-Apr-16 08:29N 37°57' E 023°35'0 0.0
2018-Apr-16 07:59N 37°57' E 023°35'0 0.0
2018-Apr-16 07:29N 37°57' E 023°35'0 0.0
2018-Apr-16 06:56N 37°57' E 023°35'0 0.0
2018-Apr-16 06:29N 37°57' E 023°35'0 0.0
2018-Apr-16 05:59N 37°57' E 023°35'0 0.0
2018-Apr-16 05:29N 37°57' E 023°35'0 0.0
2018-Apr-16 04:59N 37°57' E 023°35'0 0.0
2018-Apr-16 04:29N 37°57' E 023°35'0 0.0
2018-Apr-16 03:59N 37°57' E 023°35'0 0.0
2018-Apr-16 03:23N 37°57' E 023°35'0 0.0
2018-Apr-16 02:59N 37°57' E 023°35'0 0.0
2018-Apr-16 02:26N 37°57' E 023°35'0 0.0
2018-Apr-16 01:59N 37°57' E 023°35'0 0.0
2018-Apr-16 01:29N 37°57' E 023°35'0 0.0
2018-Apr-16 00:59N 37°57' E 023°35'0 0.0
2018-Apr-16 00:29N 37°57' E 023°35'0 0.0
2018-Apr-15 23:59N 37°57' E 023°35'0 0.0
2018-Apr-15 23:29N 37°57' E 023°35'0 0.0
2018-Apr-15 22:59N 37°57' E 023°35'0 0.0
2018-Apr-15 22:29N 37°57' E 023°35'0 0.1
2018-Apr-15 22:00N 37°57' E 023°35'2 4.1
2018-Apr-15 21:30N 37°55' E 023°35'1 1.1
2018-Apr-15 21:01N 37°55' E 023°35'0 0.1
2018-Apr-15 20:31N 37°55' E 023°35'0 0.1
2018-Apr-15 20:01N 37°55' E 023°35'1 1.8
2018-Apr-15 19:30N 37°54' E 023°35'2 4.3
2018-Apr-15 19:00N 37°52' E 023°33'0 0.2
2018-Apr-15 18:29N 37°52' E 023°33'0 0.0
2018-Apr-15 17:59N 37°52' E 023°33'0 0.2
2018-Apr-15 17:29N 37°52' E 023°33'0 0.1
2018-Apr-15 16:59N 37°52' E 023°33'0 0.1
2018-Apr-15 16:29N 37°52' E 023°33'0 0.1
2018-Apr-15 15:59N 37°52' E 023°33'0 0.1
2018-Apr-15 15:29N 37°52' E 023°33'0 0.1
2018-Apr-15 15:00N 37°52' E 023°33'1 1.7
2018-Apr-15 14:30N 37°52' E 023°34'3 6.4
2018-Apr-15 14:01N 37°51' E 023°38'611.7
2018-Apr-15 13:30N 37°46' E 023°42'713.5
2018-Apr-15 12:57N 37°39' E 023°46'  

Dump ship's entire track history